sensor_id;sensor_type;location;lat;lon;timestamp;temperature;humidity
32536;DHT22;18974;50.838;4.636;2023-01-19T00:02:24;2.40;99.90
32536;DHT22;18974;50.838;4.636;2023-01-19T00:04:50;2.40;99.90
32536;DHT22;18974;50.838;4.636;2023-01-19T00:07:16;2.30;99.90
32536;DHT22;18974;50.838;4.636;2023-01-19T00:09:41;2.20;99.90
32536;DHT22;18974;50.838;4.636;2023-01-19T00:12:07;2.20;99.90
32536;DHT22;18974;50.838;4.636;2023-01-19T00:14:33;2.20;99.90
32536;DHT22;18974;50.838;4.636;2023-01-19T00:16:59;2.10;99.90
32536;DHT22;18974;50.838;4.636;2023-01-19T00:19:26;2.20;99.90
32536;DHT22;18974;50.838;4.636;2023-01-19T00:21:52;2.20;99.90
32536;DHT22;18974;50.838;4.636;2023-01-19T00:24:18;2.20;99.90
32536;DHT22;18974;50.838;4.636;2023-01-19T00:26:44;2.20;99.90
32536;DHT22;18974;50.838;4.636;2023-01-19T00:29:12;2.30;99.90
32536;DHT22;18974;50.838;4.636;2023-01-19T00:31:38;2.30;99.90
32536;DHT22;18974;50.838;4.636;2023-01-19T00:34:07;2.40;99.90
32536;DHT22;18974;50.838;4.636;2023-01-19T00:36:32;2.50;99.90
32536;DHT22;18974;50.838;4.636;2023-01-19T00:38:58;2.50;99.90
32536;DHT22;18974;50.838;4.636;2023-01-19T00:41:24;2.40;99.90
32536;DHT22;18974;50.838;4.636;2023-01-19T00:44:10;2.50;99.90
32536;DHT22;18974;50.838;4.636;2023-01-19T00:46:37;2.50;99.90
32536;DHT22;18974;50.838;4.636;2023-01-19T00:49:03;2.60;99.90
32536;DHT22;18974;50.838;4.636;2023-01-19T00:51:31;2.70;99.90
32536;DHT22;18974;50.838;4.636;2023-01-19T00:53:57;2.70;99.90
32536;DHT22;18974;50.838;4.636;2023-01-19T00:56:32;2.70;99.90
32536;DHT22;18974;50.838;4.636;2023-01-19T00:58:59;2.70;99.90
32536;DHT22;18974;50.838;4.636;2023-01-19T01:01:24;2.80;99.90
32536;DHT22;18974;50.838;4.636;2023-01-19T01:03:50;2.80;99.90
32536;DHT22;18974;50.838;4.636;2023-01-19T01:06:19;2.80;99.90
32536;DHT22;18974;50.838;4.636;2023-01-19T01:08:44;2.80;99.90
32536;DHT22;18974;50.838;4.636;2023-01-19T01:11:10;2.80;99.90
32536;DHT22;18974;50.838;4.636;2023-01-19T01:13:35;2.80;99.90
32536;DHT22;18974;50.838;4.636;2023-01-19T01:16:01;2.80;99.90
32536;DHT22;18974;50.838;4.636;2023-01-19T01:18:27;2.70;99.90
32536;DHT22;18974;50.838;4.636;2023-01-19T01:21:02;2.60;99.90
32536;DHT22;18974;50.838;4.636;2023-01-19T01:23:28;2.50;99.90
32536;DHT22;18974;50.838;4.636;2023-01-19T01:25:53;2.40;99.90
32536;DHT22;18974;50.838;4.636;2023-01-19T01:28:19;2.40;99.90
32536;DHT22;18974;50.838;4.636;2023-01-19T01:30:45;2.40;99.90
32536;DHT22;18974;50.838;4.636;2023-01-19T01:33:10;2.40;99.90
32536;DHT22;18974;50.838;4.636;2023-01-19T01:35:36;2.40;99.90
32536;DHT22;18974;50.838;4.636;2023-01-19T01:38:02;2.40;99.90
32536;DHT22;18974;50.838;4.636;2023-01-19T01:40:28;2.40;99.90
32536;DHT22;18974;50.838;4.636;2023-01-19T01:42:53;2.30;99.90
32536;DHT22;18974;50.838;4.636;2023-01-19T01:47:54;2.20;99.90
32536;DHT22;18974;50.838;4.636;2023-01-19T01:50:27;2.30;99.90
32536;DHT22;18974;50.838;4.636;2023-01-19T01:53:04;2.20;99.90
32536;DHT22;18974;50.838;4.636;2023-01-19T01:55:34;2.20;99.90
32536;DHT22;18974;50.838;4.636;2023-01-19T01:58:02;2.20;99.90
32536;DHT22;18974;50.838;4.636;2023-01-19T02:00:31;2.20;99.90
32536;DHT22;18974;50.838;4.636;2023-01-19T02:03:17;2.00;99.90
32536;DHT22;18974;50.838;4.636;2023-01-19T02:05:43;2.00;99.90
32536;DHT22;18974;50.838;4.636;2023-01-19T02:08:47;1.80;99.90
32536;DHT22;18974;50.838;4.636;2023-01-19T02:11:34;1.70;99.90
32536;DHT22;18974;50.838;4.636;2023-01-19T02:14:19;1.80;99.90
32536;DHT22;18974;50.838;4.636;2023-01-19T02:16:45;1.80;99.90
32536;DHT22;18974;50.838;4.636;2023-01-19T02:19:20;1.90;99.90
32536;DHT22;18974;50.838;4.636;2023-01-19T02:21:59;1.90;99.90
32536;DHT22;18974;50.838;4.636;2023-01-19T02:24:28;1.80;99.90
32536;DHT22;18974;50.838;4.636;2023-01-19T02:26:54;1.80;99.90
32536;DHT22;18974;50.838;4.636;2023-01-19T02:29:22;1.70;99.90
32536;DHT22;18974;50.838;4.636;2023-01-19T02:31:49;1.70;99.90
32536;DHT22;18974;50.838;4.636;2023-01-19T02:34:17;1.80;99.90
32536;DHT22;18974;50.838;4.636;2023-01-19T02:36:55;1.90;99.90
32536;DHT22;18974;50.838;4.636;2023-01-19T02:39:44;2.00;99.90
32536;DHT22;18974;50.838;4.636;2023-01-19T02:42:14;2.10;99.90
32536;DHT22;18974;50.838;4.636;2023-01-19T02:44:51;2.10;99.90
32536;DHT22;18974;50.838;4.636;2023-01-19T02:47:18;2.10;99.90
32536;DHT22;18974;50.838;4.636;2023-01-19T02:49:52;2.10;99.90
32536;DHT22;18974;50.838;4.636;2023-01-19T02:52:18;2.10;99.90
32536;DHT22;18974;50.838;4.636;2023-01-19T03:00:50;2.00;99.90
32536;DHT22;18974;50.838;4.636;2023-01-19T03:03:31;1.90;99.90
32536;DHT22;18974;50.838;4.636;2023-01-19T03:11:48;2.20;99.90
32536;DHT22;18974;50.838;4.636;2023-01-19T03:14:19;2.20;99.90
32536;DHT22;18974;50.838;4.636;2023-01-19T03:17:05;2.20;99.90
32536;DHT22;18974;50.838;4.636;2023-01-19T03:19:38;2.20;99.90
32536;DHT22;18974;50.838;4.636;2023-01-19T03:22:20;2.30;99.90
32536;DHT22;18974;50.838;4.636;2023-01-19T03:24:47;2.30;99.90
32536;DHT22;18974;50.838;4.636;2023-01-19T03:27:18;2.40;99.90
32536;DHT22;18974;50.838;4.636;2023-01-19T03:29:51;2.50;99.90
32536;DHT22;18974;50.838;4.636;2023-01-19T03:32:19;2.50;99.90
32536;DHT22;18974;50.838;4.636;2023-01-19T03:34:48;2.40;99.90
32536;DHT22;18974;50.838;4.636;2023-01-19T03:37:15;2.40;99.90
32536;DHT22;18974;50.838;4.636;2023-01-19T03:39:42;2.30;99.90
32536;DHT22;18974;50.838;4.636;2023-01-19T03:42:11;2.30;99.90
32536;DHT22;18974;50.838;4.636;2023-01-19T03:44:38;2.40;99.90
32536;DHT22;18974;50.838;4.636;2023-01-19T03:47:06;2.50;99.90
32536;DHT22;18974;50.838;4.636;2023-01-19T03:49:34;2.60;99.90
32536;DHT22;18974;50.838;4.636;2023-01-19T03:52:00;2.60;99.90
32536;DHT22;18974;50.838;4.636;2023-01-19T03:54:26;2.50;99.90
32536;DHT22;18974;50.838;4.636;2023-01-19T03:56:52;2.60;99.90
32536;DHT22;18974;50.838;4.636;2023-01-19T03:59:18;2.70;99.90
32536;DHT22;18974;50.838;4.636;2023-01-19T04:01:46;2.70;99.90
32536;DHT22;18974;50.838;4.636;2023-01-19T04:04:12;2.70;99.90
32536;DHT22;18974;50.838;4.636;2023-01-19T04:06:38;2.60;99.90
32536;DHT22;18974;50.838;4.636;2023-01-19T04:09:04;2.30;99.90
32536;DHT22;18974;50.838;4.636;2023-01-19T04:11:29;2.20;99.90
32536;DHT22;18974;50.838;4.636;2023-01-19T04:13:55;2.20;99.90
32536;DHT22;18974;50.838;4.636;2023-01-19T04:16:20;2.20;99.90
32536;DHT22;18974;50.838;4.636;2023-01-19T04:18:47;2.30;99.90
32536;DHT22;18974;50.838;4.636;2023-01-19T04:21:17;2.30;99.90
32536;DHT22;18974;50.838;4.636;2023-01-19T04:23:44;2.30;99.90
32536;DHT22;18974;50.838;4.636;2023-01-19T04:26:10;2.30;99.90
32536;DHT22;18974;50.838;4.636;2023-01-19T04:28:36;2.30;99.90
32536;DHT22;18974;50.838;4.636;2023-01-19T04:31:03;2.20;99.90
32536;DHT22;18974;50.838;4.636;2023-01-19T04:33:29;2.00;99.90
32536;DHT22;18974;50.838;4.636;2023-01-19T04:35:55;2.10;99.90
32536;DHT22;18974;50.838;4.636;2023-01-19T04:38:23;2.10;99.90
32536;DHT22;18974;50.838;4.636;2023-01-19T04:40:52;2.20;99.90
32536;DHT22;18974;50.838;4.636;2023-01-19T04:43:19;2.30;99.90
32536;DHT22;18974;50.838;4.636;2023-01-19T04:45:45;2.20;99.90
32536;DHT22;18974;50.838;4.636;2023-01-19T04:48:12;2.20;99.90
32536;DHT22;18974;50.838;4.636;2023-01-19T04:50:38;2.20;99.90
32536;DHT22;18974;50.838;4.636;2023-01-19T04:53:04;2.30;99.90
32536;DHT22;18974;50.838;4.636;2023-01-19T04:55:30;2.30;99.90
32536;DHT22;18974;50.838;4.636;2023-01-19T04:57:55;2.30;99.90
32536;DHT22;18974;50.838;4.636;2023-01-19T05:00:21;2.30;99.90
32536;DHT22;18974;50.838;4.636;2023-01-19T05:02:48;2.30;99.90
32536;DHT22;18974;50.838;4.636;2023-01-19T05:05:13;2.20;99.90
32536;DHT22;18974;50.838;4.636;2023-01-19T05:07:39;2.10;99.90
32536;DHT22;18974;50.838;4.636;2023-01-19T05:10:06;2.10;99.90
32536;DHT22;18974;50.838;4.636;2023-01-19T05:12:32;2.00;99.90
32536;DHT22;18974;50.838;4.636;2023-01-19T05:14:58;2.00;99.90
32536;DHT22;18974;50.838;4.636;2023-01-19T05:17:23;2.00;99.90
32536;DHT22;18974;50.838;4.636;2023-01-19T05:19:49;2.10;99.90
32536;DHT22;18974;50.838;4.636;2023-01-19T05:22:15;2.10;99.90
32536;DHT22;18974;50.838;4.636;2023-01-19T05:24:41;2.10;99.90
32536;DHT22;18974;50.838;4.636;2023-01-19T05:27:07;2.20;99.90
32536;DHT22;18974;50.838;4.636;2023-01-19T05:29:32;2.20;99.90
32536;DHT22;18974;50.838;4.636;2023-01-19T05:31:59;2.20;99.90
32536;DHT22;18974;50.838;4.636;2023-01-19T05:34:27;2.10;99.90
32536;DHT22;18974;50.838;4.636;2023-01-19T05:36:52;2.00;99.90
32536;DHT22;18974;50.838;4.636;2023-01-19T05:39:18;2.20;99.90
32536;DHT22;18974;50.838;4.636;2023-01-19T05:41:44;2.20;99.90
32536;DHT22;18974;50.838;4.636;2023-01-19T05:44:10;2.10;99.90
32536;DHT22;18974;50.838;4.636;2023-01-19T05:46:37;2.10;99.90
32536;DHT22;18974;50.838;4.636;2023-01-19T05:49:02;2.00;99.90
32536;DHT22;18974;50.838;4.636;2023-01-19T05:51:38;1.90;99.90
32536;DHT22;18974;50.838;4.636;2023-01-19T05:54:05;2.00;99.90
32536;DHT22;18974;50.838;4.636;2023-01-19T05:56:31;2.00;99.90
32536;DHT22;18974;50.838;4.636;2023-01-19T05:58:57;2.10;99.90
32536;DHT22;18974;50.838;4.636;2023-01-19T06:01:26;2.10;99.90
32536;DHT22;18974;50.838;4.636;2023-01-19T06:03:52;2.10;99.90
32536;DHT22;18974;50.838;4.636;2023-01-19T06:06:19;2.10;99.90
32536;DHT22;18974;50.838;4.636;2023-01-19T06:08:45;2.10;99.90
32536;DHT22;18974;50.838;4.636;2023-01-19T06:11:13;2.00;99.90
32536;DHT22;18974;50.838;4.636;2023-01-19T06:13:38;2.10;99.90
32536;DHT22;18974;50.838;4.636;2023-01-19T06:16:06;2.00;99.90
32536;DHT22;18974;50.838;4.636;2023-01-19T06:18:32;1.90;99.90
32536;DHT22;18974;50.838;4.636;2023-01-19T06:20:58;1.90;99.90
32536;DHT22;18974;50.838;4.636;2023-01-19T06:23:24;1.80;99.90
32536;DHT22;18974;50.838;4.636;2023-01-19T06:25:50;1.70;99.90
32536;DHT22;18974;50.838;4.636;2023-01-19T06:28:18;1.60;99.90
32536;DHT22;18974;50.838;4.636;2023-01-19T06:30:48;1.60;99.90
32536;DHT22;18974;50.838;4.636;2023-01-19T06:33:15;1.80;99.90
32536;DHT22;18974;50.838;4.636;2023-01-19T06:35:45;1.70;99.90
32536;DHT22;18974;50.838;4.636;2023-01-19T06:38:11;1.70;99.90
32536;DHT22;18974;50.838;4.636;2023-01-19T06:40:43;1.70;99.90
32536;DHT22;18974;50.838;4.636;2023-01-19T06:43:09;1.60;99.90
32536;DHT22;18974;50.838;4.636;2023-01-19T06:45:35;1.70;99.90
32536;DHT22;18974;50.838;4.636;2023-01-19T06:48:02;1.70;99.90
32536;DHT22;18974;50.838;4.636;2023-01-19T06:50:28;1.70;99.90
32536;DHT22;18974;50.838;4.636;2023-01-19T06:52:56;1.70;99.90
32536;DHT22;18974;50.838;4.636;2023-01-19T06:55:21;1.60;99.90
32536;DHT22;18974;50.838;4.636;2023-01-19T06:57:47;1.60;99.90
32536;DHT22;18974;50.838;4.636;2023-01-19T07:00:13;1.70;99.90
32536;DHT22;18974;50.838;4.636;2023-01-19T07:02:42;1.60;99.90
32536;DHT22;18974;50.838;4.636;2023-01-19T07:05:09;1.60;99.90
32536;DHT22;18974;50.838;4.636;2023-01-19T07:07:36;1.60;99.90
32536;DHT22;18974;50.838;4.636;2023-01-19T07:10:05;1.70;99.90
32536;DHT22;18974;50.838;4.636;2023-01-19T07:12:32;1.70;99.90
32536;DHT22;18974;50.838;4.636;2023-01-19T07:14:58;1.70;99.90
32536;DHT22;18974;50.838;4.636;2023-01-19T07:17:23;1.80;99.90
32536;DHT22;18974;50.838;4.636;2023-01-19T07:19:49;1.80;99.90
32536;DHT22;18974;50.838;4.636;2023-01-19T07:22:15;1.90;99.90
32536;DHT22;18974;50.838;4.636;2023-01-19T07:24:41;1.80;99.90
32536;DHT22;18974;50.838;4.636;2023-01-19T07:27:06;1.90;99.90
32536;DHT22;18974;50.838;4.636;2023-01-19T07:29:32;2.10;99.90
32536;DHT22;18974;50.838;4.636;2023-01-19T07:31:58;2.00;99.90
32536;DHT22;18974;50.838;4.636;2023-01-19T07:34:23;2.00;99.90
32536;DHT22;18974;50.838;4.636;2023-01-19T07:36:49;2.00;99.90
32536;DHT22;18974;50.838;4.636;2023-01-19T07:39:15;2.00;99.90
32536;DHT22;18974;50.838;4.636;2023-01-19T07:41:40;2.00;99.90
32536;DHT22;18974;50.838;4.636;2023-01-19T07:44:06;1.90;99.90
32536;DHT22;18974;50.838;4.636;2023-01-19T07:46:33;1.80;99.90
32536;DHT22;18974;50.838;4.636;2023-01-19T07:48:59;1.80;99.90
32536;DHT22;18974;50.838;4.636;2023-01-19T07:51:26;1.70;99.90
32536;DHT22;18974;50.838;4.636;2023-01-19T07:53:52;1.80;99.90
32536;DHT22;18974;50.838;4.636;2023-01-19T07:56:18;1.80;99.90
32536;DHT22;18974;50.838;4.636;2023-01-19T07:58:46;1.70;99.90
32536;DHT22;18974;50.838;4.636;2023-01-19T08:01:14;1.70;99.90
32536;DHT22;18974;50.838;4.636;2023-01-19T08:03:39;1.60;99.90
32536;DHT22;18974;50.838;4.636;2023-01-19T08:06:06;1.80;99.90
32536;DHT22;18974;50.838;4.636;2023-01-19T08:08:32;1.90;99.90
32536;DHT22;18974;50.838;4.636;2023-01-19T08:10:58;1.90;99.90
32536;DHT22;18974;50.838;4.636;2023-01-19T08:13:25;1.90;99.90
32536;DHT22;18974;50.838;4.636;2023-01-19T08:15:52;2.00;99.90
32536;DHT22;18974;50.838;4.636;2023-01-19T08:18:18;2.00;99.90
32536;DHT22;18974;50.838;4.636;2023-01-19T08:20:45;2.00;99.90
32536;DHT22;18974;50.838;4.636;2023-01-19T08:23:11;2.00;99.90
32536;DHT22;18974;50.838;4.636;2023-01-19T08:25:41;2.00;99.90
32536;DHT22;18974;50.838;4.636;2023-01-19T08:28:09;2.00;99.90
32536;DHT22;18974;50.838;4.636;2023-01-19T08:30:35;2.10;99.90
32536;DHT22;18974;50.838;4.636;2023-01-19T08:33:01;2.10;99.90
32536;DHT22;18974;50.838;4.636;2023-01-19T08:35:34;2.20;99.90
32536;DHT22;18974;50.838;4.636;2023-01-19T08:38:01;2.30;99.90
32536;DHT22;18974;50.838;4.636;2023-01-19T08:40:28;2.30;99.90
32536;DHT22;18974;50.838;4.636;2023-01-19T08:43:00;2.40;99.90
32536;DHT22;18974;50.838;4.636;2023-01-19T08:45:28;2.40;99.90
32536;DHT22;18974;50.838;4.636;2023-01-19T08:47:56;2.40;99.90
32536;DHT22;18974;50.838;4.636;2023-01-19T08:50:24;2.50;99.90
32536;DHT22;18974;50.838;4.636;2023-01-19T08:52:50;2.60;99.90
32536;DHT22;18974;50.838;4.636;2023-01-19T08:55:16;2.70;99.90
32536;DHT22;18974;50.838;4.636;2023-01-19T08:57:42;2.70;99.90
32536;DHT22;18974;50.838;4.636;2023-01-19T09:00:10;2.80;99.90
32536;DHT22;18974;50.838;4.636;2023-01-19T09:02:36;3.00;99.90
32536;DHT22;18974;50.838;4.636;2023-01-19T09:05:01;3.20;99.90
32536;DHT22;18974;50.838;4.636;2023-01-19T09:07:29;3.40;99.90
32536;DHT22;18974;50.838;4.636;2023-01-19T09:10:05;3.30;99.90
32536;DHT22;18974;50.838;4.636;2023-01-19T09:12:31;3.20;99.90
32536;DHT22;18974;50.838;4.636;2023-01-19T09:14:56;3.10;99.90
32536;DHT22;18974;50.838;4.636;2023-01-19T09:17:22;3.00;99.90
32536;DHT22;18974;50.838;4.636;2023-01-19T09:19:48;2.70;99.90
32536;DHT22;18974;50.838;4.636;2023-01-19T09:22:13;2.70;99.90
32536;DHT22;18974;50.838;4.636;2023-01-19T09:24:39;2.90;99.90
32536;DHT22;18974;50.838;4.636;2023-01-19T09:27:05;2.90;99.90
32536;DHT22;18974;50.838;4.636;2023-01-19T09:29:30;2.90;99.90
32536;DHT22;18974;50.838;4.636;2023-01-19T09:31:56;2.90;99.90
32536;DHT22;18974;50.838;4.636;2023-01-19T09:34:22;3.00;99.90
32536;DHT22;18974;50.838;4.636;2023-01-19T09:36:50;3.00;99.90
32536;DHT22;18974;50.838;4.636;2023-01-19T09:39:16;3.00;99.90
32536;DHT22;18974;50.838;4.636;2023-01-19T09:41:53;2.90;99.90
32536;DHT22;18974;50.838;4.636;2023-01-19T09:44:28;2.80;99.90
32536;DHT22;18974;50.838;4.636;2023-01-19T09:46:54;3.00;99.90
32536;DHT22;18974;50.838;4.636;2023-01-19T09:51:55;3.20;99.90
32536;DHT22;18974;50.838;4.636;2023-01-19T09:54:34;3.20;99.90
32536;DHT22;18974;50.838;4.636;2023-01-19T09:57:00;3.40;99.90
32536;DHT22;18974;50.838;4.636;2023-01-19T09:59:31;3.60;99.90
32536;DHT22;18974;50.838;4.636;2023-01-19T10:02:13;3.60;99.90
32536;DHT22;18974;50.838;4.636;2023-01-19T10:10:21;4.00;99.90
32536;DHT22;18974;50.838;4.636;2023-01-19T10:18:47;4.00;99.90
32536;DHT22;18974;50.838;4.636;2023-01-19T10:21:39;4.10;99.90
32536;DHT22;18974;50.838;4.636;2023-01-19T10:26:40;4.00;99.90
32536;DHT22;18974;50.838;4.636;2023-01-19T10:29:13;3.90;99.90
32536;DHT22;18974;50.838;4.636;2023-01-19T10:31:42;3.90;99.90
32536;DHT22;18974;50.838;4.636;2023-01-19T10:34:12;3.80;99.90
32536;DHT22;18974;50.838;4.636;2023-01-19T10:36:46;3.80;99.90
32536;DHT22;18974;50.838;4.636;2023-01-19T10:39:15;3.80;99.90
32536;DHT22;18974;50.838;4.636;2023-01-19T10:41:49;3.90;99.90
32536;DHT22;18974;50.838;4.636;2023-01-19T10:44:26;4.00;99.90
32536;DHT22;18974;50.838;4.636;2023-01-19T10:46:56;3.90;99.90
32536;DHT22;18974;50.838;4.636;2023-01-19T10:49:36;4.00;99.90
32536;DHT22;18974;50.838;4.636;2023-01-19T10:52:16;3.90;99.90
32536;DHT22;18974;50.838;4.636;2023-01-19T10:54:44;3.90;99.90
32536;DHT22;18974;50.838;4.636;2023-01-19T10:57:21;3.90;99.90
32536;DHT22;18974;50.838;4.636;2023-01-19T10:59:50;3.90;99.90
32536;DHT22;18974;50.838;4.636;2023-01-19T11:02:20;3.80;99.90
32536;DHT22;18974;50.838;4.636;2023-01-19T11:04:48;3.90;99.90
32536;DHT22;18974;50.838;4.636;2023-01-19T11:15:40;4.40;99.90
32536;DHT22;18974;50.838;4.636;2023-01-19T11:18:07;4.30;99.90
32536;DHT22;18974;50.838;4.636;2023-01-19T11:20:48;4.30;99.90
32536;DHT22;18974;50.838;4.636;2023-01-19T11:25:46;4.30;99.90
32536;DHT22;18974;50.838;4.636;2023-01-19T11:28:29;4.30;99.90
32536;DHT22;18974;50.838;4.636;2023-01-19T11:31:16;4.40;99.90
32536;DHT22;18974;50.838;4.636;2023-01-19T11:33:50;4.50;99.90
32536;DHT22;18974;50.838;4.636;2023-01-19T11:36:19;4.60;99.90
32536;DHT22;18974;50.838;4.636;2023-01-19T11:38:53;4.70;99.90
32536;DHT22;18974;50.838;4.636;2023-01-19T11:43:58;4.90;99.90
32536;DHT22;18974;50.838;4.636;2023-01-19T11:46:32;5.00;99.90
32536;DHT22;18974;50.838;4.636;2023-01-19T11:49:03;4.90;99.90
32536;DHT22;18974;50.838;4.636;2023-01-19T11:51:49;4.90;99.90
32536;DHT22;18974;50.838;4.636;2023-01-19T11:54:23;4.70;99.90
32536;DHT22;18974;50.838;4.636;2023-01-19T11:56:53;4.80;99.90
32536;DHT22;18974;50.838;4.636;2023-01-19T11:59:21;4.70;99.90
32536;DHT22;18974;50.838;4.636;2023-01-19T12:01:53;4.60;99.90
32536;DHT22;18974;50.838;4.636;2023-01-19T12:04:32;4.40;99.90
32536;DHT22;18974;50.838;4.636;2023-01-19T12:07:02;4.40;99.90
32536;DHT22;18974;50.838;4.636;2023-01-19T12:09:44;4.60;99.90
32536;DHT22;18974;50.838;4.636;2023-01-19T12:17:25;4.80;99.90
32536;DHT22;18974;50.838;4.636;2023-01-19T12:22:26;5.00;99.90
32536;DHT22;18974;50.838;4.636;2023-01-19T12:25:11;5.10;99.90
32536;DHT22;18974;50.838;4.636;2023-01-19T12:27:47;5.20;99.90
32536;DHT22;18974;50.838;4.636;2023-01-19T12:30:31;5.30;99.90
32536;DHT22;18974;50.838;4.636;2023-01-19T12:33:39;5.10;99.90
32536;DHT22;18974;50.838;4.636;2023-01-19T12:41:32;5.30;99.90
32536;DHT22;18974;50.838;4.636;2023-01-19T12:44:14;5.40;99.90
32536;DHT22;18974;50.838;4.636;2023-01-19T12:47:15;5.30;99.90
32536;DHT22;18974;50.838;4.636;2023-01-19T12:49:43;5.40;99.90
32536;DHT22;18974;50.838;4.636;2023-01-19T12:52:36;5.30;99.90
32536;DHT22;18974;50.838;4.636;2023-01-19T13:13:36;5.80;99.90
32536;DHT22;18974;50.838;4.636;2023-01-19T13:21:27;6.20;99.90
32536;DHT22;18974;50.838;4.636;2023-01-19T13:26:26;6.40;99.90
32536;DHT22;18974;50.838;4.636;2023-01-19T13:28:55;6.60;99.90
32536;DHT22;18974;50.838;4.636;2023-01-19T13:31:23;6.80;99.90
32536;DHT22;18974;50.838;4.636;2023-01-19T13:33:54;7.00;99.90
32536;DHT22;18974;50.838;4.636;2023-01-19T13:38:50;7.20;99.90
32536;DHT22;18974;50.838;4.636;2023-01-19T13:41:18;7.00;99.90
32536;DHT22;18974;50.838;4.636;2023-01-19T13:43:45;7.20;99.90
32536;DHT22;18974;50.838;4.636;2023-01-19T13:46:12;7.40;99.90
32536;DHT22;18974;50.838;4.636;2023-01-19T13:48:38;7.10;99.90
32536;DHT22;18974;50.838;4.636;2023-01-19T13:51:08;7.10;99.90
32536;DHT22;18974;50.838;4.636;2023-01-19T13:53:54;7.00;99.90
32536;DHT22;18974;50.838;4.636;2023-01-19T13:56:21;6.70;99.90
32536;DHT22;18974;50.838;4.636;2023-01-19T13:59:09;6.70;99.90
32536;DHT22;18974;50.838;4.636;2023-01-19T14:01:40;6.60;99.90
32536;DHT22;18974;50.838;4.636;2023-01-19T14:06:51;6.60;99.90
32536;DHT22;18974;50.838;4.636;2023-01-19T14:09:20;6.50;99.90
32536;DHT22;18974;50.838;4.636;2023-01-19T14:12:12;6.50;99.90
32536;DHT22;18974;50.838;4.636;2023-01-19T14:14:39;6.20;99.90
32536;DHT22;18974;50.838;4.636;2023-01-19T14:17:21;6.20;99.90
32536;DHT22;18974;50.838;4.636;2023-01-19T14:19:58;6.20;99.90
32536;DHT22;18974;50.838;4.636;2023-01-19T14:22:43;6.20;99.90
32536;DHT22;18974;50.838;4.636;2023-01-19T14:25:47;6.20;99.90
32536;DHT22;18974;50.838;4.636;2023-01-19T14:31:01;6.20;99.90
32536;DHT22;18974;50.838;4.636;2023-01-19T14:33:42;6.20;99.90
32536;DHT22;18974;50.838;4.636;2023-01-19T14:38:46;6.10;99.90
32536;DHT22;18974;50.838;4.636;2023-01-19T14:41:37;6.10;99.90
32536;DHT22;18974;50.838;4.636;2023-01-19T14:44:16;6.20;99.90
32536;DHT22;18974;50.838;4.636;2023-01-19T14:46:47;6.40;99.90
32536;DHT22;18974;50.838;4.636;2023-01-19T14:49:20;6.40;99.90
32536;DHT22;18974;50.838;4.636;2023-01-19T14:51:48;6.40;99.90
32536;DHT22;18974;50.838;4.636;2023-01-19T14:54:17;6.40;99.90
32536;DHT22;18974;50.838;4.636;2023-01-19T14:56:43;6.30;99.90
32536;DHT22;18974;50.838;4.636;2023-01-19T14:59:12;6.20;99.90
32536;DHT22;18974;50.838;4.636;2023-01-19T15:01:38;6.20;99.90
32536;DHT22;18974;50.838;4.636;2023-01-19T15:04:04;6.20;99.90
32536;DHT22;18974;50.838;4.636;2023-01-19T15:06:30;6.20;99.90
32536;DHT22;18974;50.838;4.636;2023-01-19T15:08:56;6.10;99.90
32536;DHT22;18974;50.838;4.636;2023-01-19T15:11:29;6.00;99.90
32536;DHT22;18974;50.838;4.636;2023-01-19T15:13:55;6.10;99.90
32536;DHT22;18974;50.838;4.636;2023-01-19T15:16:24;6.00;99.90
32536;DHT22;18974;50.838;4.636;2023-01-19T15:18:50;5.90;99.90
32536;DHT22;18974;50.838;4.636;2023-01-19T15:21:17;5.90;99.90
32536;DHT22;18974;50.838;4.636;2023-01-19T15:23:44;5.80;99.90
32536;DHT22;18974;50.838;4.636;2023-01-19T15:26:17;5.80;99.90
32536;DHT22;18974;50.838;4.636;2023-01-19T15:28:44;5.80;99.90
32536;DHT22;18974;50.838;4.636;2023-01-19T15:31:17;5.70;99.90
32536;DHT22;18974;50.838;4.636;2023-01-19T15:33:43;5.60;99.90
32536;DHT22;18974;50.838;4.636;2023-01-19T15:36:15;5.40;99.90
32536;DHT22;18974;50.838;4.636;2023-01-19T15:38:41;5.30;99.90
32536;DHT22;18974;50.838;4.636;2023-01-19T15:41:28;5.40;99.90
32536;DHT22;18974;50.838;4.636;2023-01-19T15:43:54;5.40;99.90
32536;DHT22;18974;50.838;4.636;2023-01-19T15:46:21;5.50;99.90
32536;DHT22;18974;50.838;4.636;2023-01-19T15:48:50;5.50;99.90
32536;DHT22;18974;50.838;4.636;2023-01-19T15:51:18;5.40;99.90
32536;DHT22;18974;50.838;4.636;2023-01-19T15:53:44;5.40;99.90
32536;DHT22;18974;50.838;4.636;2023-01-19T15:56:15;5.20;99.90
32536;DHT22;18974;50.838;4.636;2023-01-19T15:58:42;5.10;99.90
32536;DHT22;18974;50.838;4.636;2023-01-19T16:01:12;5.10;99.90
32536;DHT22;18974;50.838;4.636;2023-01-19T16:03:38;5.10;99.90
32536;DHT22;18974;50.838;4.636;2023-01-19T16:06:04;4.80;99.90
32536;DHT22;18974;50.838;4.636;2023-01-19T16:08:30;4.60;99.90
32536;DHT22;18974;50.838;4.636;2023-01-19T16:10:56;4.40;99.90
32536;DHT22;18974;50.838;4.636;2023-01-19T16:13:21;4.30;99.90
32536;DHT22;18974;50.838;4.636;2023-01-19T16:15:47;4.10;99.90
32536;DHT22;18974;50.838;4.636;2023-01-19T16:18:13;3.90;99.90
32536;DHT22;18974;50.838;4.636;2023-01-19T16:20:38;3.80;99.90
32536;DHT22;18974;50.838;4.636;2023-01-19T16:23:04;4.00;99.90
32536;DHT22;18974;50.838;4.636;2023-01-19T16:25:32;3.90;99.90
32536;DHT22;18974;50.838;4.636;2023-01-19T16:27:57;3.80;99.90
32536;DHT22;18974;50.838;4.636;2023-01-19T16:30:23;3.80;99.90
32536;DHT22;18974;50.838;4.636;2023-01-19T16:32:48;3.80;99.90
32536;DHT22;18974;50.838;4.636;2023-01-19T16:35:17;3.70;99.90
32536;DHT22;18974;50.838;4.636;2023-01-19T16:37:43;3.70;99.90
32536;DHT22;18974;50.838;4.636;2023-01-19T16:40:09;3.60;99.90
32536;DHT22;18974;50.838;4.636;2023-01-19T16:42:37;3.50;99.90
32536;DHT22;18974;50.838;4.636;2023-01-19T16:45:04;3.40;99.90
32536;DHT22;18974;50.838;4.636;2023-01-19T16:47:37;3.30;99.90
32536;DHT22;18974;50.838;4.636;2023-01-19T16:50:04;3.30;99.90
32536;DHT22;18974;50.838;4.636;2023-01-19T16:52:30;3.30;99.90
32536;DHT22;18974;50.838;4.636;2023-01-19T16:54:55;3.30;99.90
32536;DHT22;18974;50.838;4.636;2023-01-19T16:57:21;3.10;99.90
32536;DHT22;18974;50.838;4.636;2023-01-19T16:59:49;3.00;99.90
32536;DHT22;18974;50.838;4.636;2023-01-19T17:02:15;2.90;99.90
32536;DHT22;18974;50.838;4.636;2023-01-19T17:04:41;2.90;99.90
32536;DHT22;18974;50.838;4.636;2023-01-19T17:07:07;2.90;99.90
32536;DHT22;18974;50.838;4.636;2023-01-19T17:09:39;2.90;99.90
32536;DHT22;18974;50.838;4.636;2023-01-19T17:12:05;2.90;99.90
32536;DHT22;18974;50.838;4.636;2023-01-19T17:14:33;2.90;99.90
32536;DHT22;18974;50.838;4.636;2023-01-19T17:17:01;2.80;99.90
32536;DHT22;18974;50.838;4.636;2023-01-19T17:19:28;2.70;99.90
32536;DHT22;18974;50.838;4.636;2023-01-19T17:21:54;2.60;99.90
32536;DHT22;18974;50.838;4.636;2023-01-19T17:24:19;2.50;99.90
32536;DHT22;18974;50.838;4.636;2023-01-19T17:26:45;2.40;99.90
32536;DHT22;18974;50.838;4.636;2023-01-19T17:29:13;2.30;99.90
32536;DHT22;18974;50.838;4.636;2023-01-19T17:31:39;2.40;99.90
32536;DHT22;18974;50.838;4.636;2023-01-19T17:34:07;2.50;99.90